createdAt,value
2022-11-27T00:01:27.814Z,73.63
2022-11-27T00:03:56.165Z,74.31
2022-11-27T00:06:25.744Z,73.70
2022-11-27T00:08:52.849Z,73.64
2022-11-27T00:11:22.475Z,73.58
2022-11-27T00:13:50.464Z,73.72
2022-11-27T00:16:18.144Z,73.75
2022-11-27T00:18:46.017Z,73.79
2022-11-27T00:21:19.140Z,73.77
2022-11-27T00:23:46.668Z,73.83
2022-11-27T00:26:15.336Z,73.94
2022-11-27T00:28:42.665Z,73.69
2022-11-27T00:31:27.578Z,73.74
2022-11-27T00:33:55.929Z,73.64
2022-11-27T00:36:23.065Z,73.86
2022-11-27T00:38:49.961Z,73.70
2022-11-27T00:41:22.659Z,73.79
2022-11-27T00:43:49.918Z,73.82
2022-11-27T00:46:18.516Z,73.99
2022-11-27T00:48:46.103Z,73.83
2022-11-27T00:51:15.398Z,73.96
2022-11-27T00:53:42.701Z,73.85
2022-11-27T00:56:11.035Z,73.95
2022-11-27T00:58:37.703Z,73.83
2022-11-27T01:01:06.944Z,73.86
2022-11-27T01:03:34.767Z,73.83
2022-11-27T01:06:06.404Z,73.92
2022-11-27T01:08:33.981Z,74.11
2022-11-27T01:11:00.963Z,73.92
2022-11-27T01:13:30.184Z,73.86
2022-11-27T01:16:12.894Z,74.21
2022-11-27T01:18:42.142Z,74.21
2022-11-27T01:21:09.417Z,74.34
2022-11-27T01:23:36.854Z,74.42
2022-11-27T01:26:05.298Z,74.44
2022-11-27T01:28:32.941Z,74.38
2022-11-27T01:31:06.066Z,74.29
2022-11-27T01:33:33.186Z,74.50
2022-11-27T01:36:02.482Z,74.46
2022-11-27T01:38:30.349Z,74.65
2022-11-27T01:41:02.212Z,74.53
2022-11-27T01:43:57.944Z,74.49
2022-11-27T01:46:44.117Z,74.58
2022-11-27T01:49:10.836Z,74.60
2022-11-27T01:51:53.164Z,74.38
2022-11-27T01:54:22.823Z,74.43
2022-11-27T01:56:52.204Z,74.25
2022-11-27T01:59:19.533Z,74.37
2022-11-27T02:01:46.695Z,74.58
2022-11-27T02:04:13.846Z,74.49
2022-11-27T02:06:40.594Z,74.48
2022-11-27T02:09:07.424Z,74.58
2022-11-27T02:11:49.237Z,74.41
2022-11-27T02:14:24.391Z,74.46
2022-11-27T02:17:01.464Z,74.30
2022-11-27T02:19:33.784Z,74.35
2022-11-27T02:22:03.674Z,74.62
2022-11-27T02:24:48.349Z,74.56
2022-11-27T02:27:42.305Z,74.74
2022-11-27T02:30:09.693Z,74.63
2022-11-27T02:33:00.498Z,74.59
2022-11-27T02:35:39.373Z,74.74
2022-11-27T02:38:17.437Z,74.85
2022-11-27T02:40:54.698Z,74.72
2022-11-27T02:43:28.739Z,74.72
2022-11-27T02:45:55.875Z,74.85
2022-11-27T02:48:27.224Z,75.05
2022-11-27T02:50:54.316Z,74.77
2022-11-27T02:53:27.025Z,75.02
2022-11-27T02:55:54.888Z,74.95
2022-11-27T02:58:25.788Z,75.07
2022-11-27T03:00:52.904Z,74.84
2022-11-27T03:03:29.918Z,75.11
2022-11-27T03:06:04.853Z,74.75
2022-11-27T03:08:47.414Z,74.99
2022-11-27T03:11:15.541Z,75.15
2022-11-27T03:13:46.367Z,75.17
2022-11-27T03:16:25.020Z,75.22
2022-11-27T03:19:10.421Z,75.10
2022-11-27T03:21:40.982Z,75.24
2022-11-27T03:24:08.873Z,75.00
2022-11-27T03:26:37.129Z,75.15
2022-11-27T03:29:09.084Z,75.08
2022-11-27T03:31:35.998Z,75.30
2022-11-27T03:34:02.798Z,75.23
2022-11-27T03:36:29.438Z,75.31
2022-11-27T03:38:56.869Z,75.24
2022-11-27T03:41:49.624Z,75.46
2022-11-27T03:44:42.115Z,75.60
2022-11-27T03:47:37.020Z,75.30
2022-11-27T03:50:23.785Z,75.20
2022-11-27T03:53:14.941Z,74.99
2022-11-27T03:56:13.676Z,75.11
2022-11-27T03:58:52.247Z,75.09
2022-11-27T04:01:23.239Z,75.17
2022-11-27T04:03:49.954Z,75.34
2022-11-27T04:06:17.664Z,75.29
2022-11-27T04:08:48.795Z,75.24
2022-11-27T04:11:15.815Z,75.17
2022-11-27T04:13:42.839Z,75.38
2022-11-27T04:16:09.523Z,75.41
2022-11-27T04:18:36.219Z,75.35
2022-11-27T04:21:03.495Z,75.15
2022-11-27T04:23:30.196Z,75.35
2022-11-27T04:25:56.986Z,75.48
2022-11-27T04:28:23.637Z,75.41
2022-11-27T04:30:54.789Z,75.54
2022-11-27T04:33:21.966Z,75.31
2022-11-27T04:35:49.341Z,75.51
2022-11-27T04:38:16.190Z,75.56
2022-11-27T04:40:42.924Z,75.77
2022-11-27T04:43:09.636Z,75.82
2022-11-27T04:45:37.164Z,75.73
2022-11-27T04:48:04.818Z,75.89
2022-11-27T04:50:31.494Z,75.72
2022-11-27T04:52:58.438Z,75.94
2022-11-27T04:55:25.047Z,75.75
2022-11-27T04:57:51.646Z,75.69
2022-11-27T05:00:18.909Z,75.87
2022-11-27T05:02:45.577Z,75.49
2022-11-27T05:05:12.373Z,75.98
2022-11-27T05:07:39.241Z,75.74
2022-11-27T05:10:06.881Z,75.63
2022-11-27T05:12:33.605Z,75.70
2022-11-27T05:15:04.274Z,75.77
2022-11-27T05:17:31.584Z,76.14
2022-11-27T05:19:58.618Z,75.79
2022-11-27T05:22:25.261Z,75.96
2022-11-27T05:24:51.801Z,75.53
2022-11-27T05:27:18.785Z,75.75
2022-11-27T05:29:45.619Z,75.59
2022-11-27T05:32:12.248Z,75.62
2022-11-27T05:34:39.397Z,75.44
2022-11-27T05:37:06.500Z,75.71
2022-11-27T05:39:33.091Z,75.59
2022-11-27T05:41:59.824Z,75.55
2022-11-27T05:44:26.969Z,75.72
2022-11-27T05:46:53.681Z,75.47
2022-11-27T05:49:20.507Z,75.61
2022-11-27T05:51:51.350Z,75.38
2022-11-27T05:54:19.105Z,75.59
2022-11-27T05:56:45.791Z,75.55
2022-11-27T05:59:12.756Z,75.34
2022-11-27T06:01:39.581Z,75.30
2022-11-27T06:04:06.294Z,75.23
2022-11-27T06:06:32.963Z,75.30
2022-11-27T06:09:00.459Z,75.44
2022-11-27T06:11:27.525Z,75.40
2022-11-27T06:13:54.138Z,75.43
2022-11-27T06:16:23.203Z,75.28
2022-11-27T06:18:52.020Z,75.58
2022-11-27T06:21:19.895Z,75.54
2022-11-27T06:23:46.615Z,75.86
2022-11-27T06:26:14.774Z,75.82
2022-11-27T06:28:42.045Z,75.99
2022-11-27T06:31:20.612Z,76.03
2022-11-27T06:33:49.274Z,75.65
2022-11-27T06:36:16.431Z,75.87
2022-11-27T06:38:44.172Z,76.17
2022-11-27T06:41:19.628Z,75.95
2022-11-27T06:43:46.276Z,75.49
2022-11-27T06:46:16.365Z,75.63
2022-11-27T06:48:44.619Z,75.82
2022-11-27T06:51:14.484Z,75.84
2022-11-27T06:53:41.974Z,75.86
2022-11-27T06:56:11.653Z,75.75
2022-11-27T06:58:39.221Z,75.88
2022-11-27T07:01:09.739Z,75.65
2022-11-27T07:03:36.790Z,75.72
2022-11-27T07:06:05.041Z,76.00
2022-11-27T07:08:31.832Z,75.83
2022-11-27T07:11:07.307Z,76.03
2022-11-27T07:13:34.078Z,76.11
2022-11-27T07:16:02.244Z,76.24
2022-11-27T07:18:30.678Z,76.05
2022-11-27T07:20:57.420Z,76.27
2022-11-27T07:23:24.077Z,76.23
2022-11-27T07:25:50.812Z,76.14
2022-11-27T07:28:18.992Z,75.98
2022-11-27T07:30:53.814Z,76.24
2022-11-27T07:33:20.668Z,76.01
2022-11-27T07:35:47.265Z,76.16
2022-11-27T07:38:13.986Z,76.27
2022-11-27T07:40:40.674Z,76.10
2022-11-27T07:43:07.321Z,76.25
2022-11-27T07:45:34.136Z,76.21
2022-11-27T07:48:01.050Z,76.19
2022-11-27T07:50:27.624Z,76.16
2022-11-27T07:52:54.469Z,75.88
2022-11-27T07:55:21.115Z,76.23
2022-11-27T07:57:47.697Z,76.12
2022-11-27T08:00:15.144Z,76.22
2022-11-27T08:02:41.878Z,75.93
2022-11-27T08:05:12.655Z,75.85
2022-11-27T08:07:39.875Z,76.04
2022-11-27T08:10:07.284Z,75.92
2022-11-27T08:12:33.881Z,75.85
2022-11-27T08:15:00.603Z,75.92
2022-11-27T08:17:27.476Z,75.78
2022-11-27T08:19:54.098Z,75.66
2022-11-27T08:22:20.810Z,75.48
2022-11-27T08:24:48.185Z,75.69
2022-11-27T08:27:16.471Z,75.60
2022-11-27T08:29:43.642Z,75.62
2022-11-27T08:32:10.687Z,75.47
2022-11-27T08:34:37.672Z,75.25
2022-11-27T08:37:06.179Z,75.40
2022-11-27T08:39:33.072Z,75.25
2022-11-27T08:42:00.027Z,75.19
2022-11-27T08:44:26.741Z,75.17
2022-11-27T08:46:53.617Z,74.91
2022-11-27T08:49:20.337Z,74.97
2022-11-27T08:51:46.959Z,74.81
2022-11-27T08:54:13.686Z,74.90
2022-11-27T08:56:40.303Z,74.72
2022-11-27T08:59:06.996Z,74.53
2022-11-27T09:01:34.010Z,74.52
2022-11-27T09:04:00.858Z,74.32
2022-11-27T09:06:30.808Z,74.06
2022-11-27T09:08:59.504Z,73.94
2022-11-27T09:11:27.795Z,73.91
2022-11-27T09:13:55.016Z,73.72
2022-11-27T09:16:22.886Z,73.73
2022-11-27T09:18:51.497Z,73.84
2022-11-27T09:21:19.793Z,73.57
2022-11-27T09:23:46.655Z,73.58
2022-11-27T09:26:16.718Z,73.65
2022-11-27T09:28:44.494Z,73.59
2022-11-27T09:31:14.316Z,73.43
2022-11-27T09:33:41.685Z,73.17
2022-11-27T09:36:14.506Z,73.25
2022-11-27T09:38:42.497Z,73.09
2022-11-27T09:41:11.879Z,73.10
2022-11-27T09:44:20.442Z,72.89
2022-11-27T09:46:47.221Z,73.00
2022-11-27T09:49:36.869Z,72.86
2022-11-27T09:52:11.691Z,72.64
2022-11-27T09:54:52.211Z,72.58
2022-11-27T09:57:25.681Z,72.37
2022-11-27T09:59:54.199Z,72.37
2022-11-27T10:02:32.685Z,72.17
2022-11-27T10:05:17.615Z,72.18
2022-11-27T10:07:54.204Z,72.10
2022-11-27T10:10:27.335Z,71.91
2022-11-27T10:13:15.715Z,72.09
2022-11-27T10:15:49.030Z,72.10
2022-11-27T10:18:34.442Z,72.18
2022-11-27T10:21:20.198Z,71.99
2022-11-27T10:23:53.690Z,71.89
2022-11-27T10:26:35.175Z,71.80
2022-11-27T10:29:23.295Z,71.80
2022-11-27T10:31:53.653Z,71.86
2022-11-27T10:34:43.546Z,71.54
2022-11-27T10:37:19.582Z,71.36
2022-11-27T10:39:56.669Z,71.16
2022-11-27T10:42:32.573Z,70.92
2022-11-27T10:45:05.970Z,70.70
2022-11-27T10:47:34.020Z,70.78
2022-11-27T10:50:01.120Z,70.77
2022-11-27T10:52:27.776Z,70.65
2022-11-27T10:55:04.703Z,70.31
2022-11-27T10:58:06.536Z,70.33
2022-11-27T11:00:33.339Z,69.94
2022-11-27T11:03:05.174Z,69.76
2022-11-27T11:05:45.646Z,69.80
2022-11-27T11:08:21.180Z,69.70
2022-11-27T11:11:03.351Z,69.71
2022-11-27T11:13:33.398Z,69.49
2022-11-27T11:16:04.413Z,68.92
2022-11-27T11:18:42.839Z,69.03
2022-11-27T11:21:26.266Z,69.12
2022-11-27T11:23:57.917Z,69.00
2022-11-27T11:26:31.440Z,68.76
2022-11-27T11:29:01.857Z,68.41
2022-11-27T11:31:38.578Z,68.65
2022-11-27T11:34:18.380Z,68.66
2022-11-27T11:37:04.462Z,68.68
2022-11-27T11:39:44.521Z,68.39
2022-11-27T11:42:25.955Z,68.15
2022-11-27T11:44:55.755Z,68.21
2022-11-27T11:47:25.225Z,68.13
2022-11-27T11:49:55.312Z,68.15
2022-11-27T11:52:24.826Z,68.10
2022-11-27T11:55:13.293Z,67.83
2022-11-27T11:58:10.499Z,67.78
2022-11-27T12:01:25.959Z,67.52
2022-11-27T12:03:50.205Z,67.40
2022-11-27T12:06:36.047Z,67.20
2022-11-27T12:09:13.071Z,67.09
2022-11-27T12:12:17.953Z,67.11
2022-11-27T12:14:50.431Z,66.88
2022-11-27T12:17:37.188Z,66.77
2022-11-27T12:20:12.831Z,66.52
2022-11-27T12:23:08.015Z,66.53
2022-11-27T12:25:43.970Z,66.36
2022-11-27T12:28:30.094Z,66.39
2022-11-27T12:31:15.087Z,66.23
2022-11-27T12:34:18.578Z,66.16
2022-11-27T12:37:13.953Z,66.02
2022-11-27T12:40:05.306Z,66.27
2022-11-27T12:42:41.218Z,66.13
2022-11-27T12:45:14.348Z,65.97
2022-11-27T12:47:43.668Z,65.89
2022-11-27T12:50:38.286Z,65.81
2022-11-27T12:53:49.473Z,65.68
2022-11-27T12:56:25.271Z,65.82
2022-11-27T12:58:57.717Z,65.47
2022-11-27T13:01:33.486Z,65.49
2022-11-27T13:04:06.156Z,65.45
2022-11-27T13:06:40.394Z,65.34
2022-11-27T13:09:15.364Z,65.39
2022-11-27T13:11:43.253Z,65.15
2022-11-27T13:14:18.854Z,64.83
2022-11-27T13:16:53.153Z,64.71
2022-11-27T13:19:27.023Z,64.73
2022-11-27T13:21:56.304Z,64.68
2022-11-27T13:24:25.069Z,64.77
2022-11-27T13:27:13.779Z,64.80
2022-11-27T13:29:46.941Z,64.78
2022-11-27T13:32:51.355Z,64.73
2022-11-27T13:35:31.653Z,64.63
2022-11-27T13:38:08.953Z,64.66
2022-11-27T13:40:47.834Z,64.45
2022-11-27T13:43:30.579Z,64.48
2022-11-27T13:46:11.939Z,64.39
2022-11-27T13:48:42.795Z,64.46
2022-11-27T13:51:11.882Z,64.29
2022-11-27T13:53:42.534Z,64.74
2022-11-27T13:56:09.802Z,64.53
2022-11-27T13:58:39.731Z,64.50
2022-11-27T14:01:32.886Z,64.68
2022-11-27T14:04:09.225Z,64.79
2022-11-27T14:06:38.725Z,64.95
2022-11-27T14:09:06.965Z,65.04
2022-11-27T14:11:44.088Z,64.97
2022-11-27T14:14:23.051Z,65.00
2022-11-27T14:17:04.376Z,65.04
2022-11-27T14:19:34.594Z,65.40
2022-11-27T14:22:13.671Z,65.53
2022-11-27T14:24:44.032Z,65.51
2022-11-27T14:27:20.915Z,65.93
2022-11-27T14:29:48.678Z,65.93
2022-11-27T14:32:16.734Z,65.99
2022-11-27T14:34:44.252Z,66.37
2022-11-27T14:37:26.159Z,66.35
2022-11-27T14:39:52.900Z,66.60
2022-11-27T14:42:29.567Z,66.75
2022-11-27T14:45:02.247Z,66.86
2022-11-27T14:47:29.219Z,67.30
2022-11-27T14:49:56.582Z,67.36
2022-11-27T14:52:24.331Z,67.58
2022-11-27T14:54:51.751Z,67.76
2022-11-27T14:57:29.471Z,67.76
2022-11-27T15:00:27.259Z,68.01
2022-11-27T15:02:54.721Z,68.02
2022-11-27T15:05:27.406Z,68.28
2022-11-27T15:07:57.613Z,68.29
2022-11-27T15:10:37.451Z,68.39
2022-11-27T15:13:06.182Z,68.16
2022-11-27T15:15:42.219Z,68.36
2022-11-27T15:18:09.771Z,68.20
2022-11-27T15:20:44.922Z,68.10
2022-11-27T15:23:32.313Z,68.01
2022-11-27T15:26:02.252Z,68.17
2022-11-27T15:28:41.033Z,68.09
2022-11-27T15:31:28.020Z,68.13
2022-11-27T15:33:57.767Z,68.21
2022-11-27T15:36:25.408Z,68.49
2022-11-27T15:38:52.914Z,68.68
2022-11-27T15:41:28.986Z,68.51
2022-11-27T15:43:56.398Z,68.54
2022-11-27T15:46:27.020Z,68.48
2022-11-27T15:48:53.893Z,68.70
2022-11-27T15:51:20.560Z,68.75
2022-11-27T15:53:48.308Z,68.96
2022-11-27T15:56:16.324Z,68.90
2022-11-27T15:58:43.674Z,68.95
2022-11-27T16:01:11.414Z,69.27
2022-11-27T16:03:40.066Z,69.08
2022-11-27T16:06:08.969Z,69.22
2022-11-27T16:08:35.810Z,69.57
2022-11-27T16:11:06.105Z,69.41
2022-11-27T16:13:32.971Z,69.65
2022-11-27T16:16:08.617Z,69.62
2022-11-27T16:18:35.365Z,69.85
2022-11-27T16:21:06.598Z,69.79
2022-11-27T16:23:33.582Z,69.97
2022-11-27T16:26:00.424Z,69.75
2022-11-27T16:28:28.485Z,70.13
2022-11-27T16:30:57.164Z,70.34
2022-11-27T16:33:31.617Z,70.16
2022-11-27T16:36:09.156Z,70.26
2022-11-27T16:38:35.776Z,70.41
2022-11-27T16:41:04.462Z,70.31
2022-11-27T16:43:35.354Z,70.61
2022-11-27T16:46:23.066Z,70.35
2022-11-27T16:48:50.387Z,70.55
2022-11-27T16:51:21.757Z,70.49
2022-11-27T16:53:56.743Z,70.70
2022-11-27T16:56:27.069Z,70.56
2022-11-27T16:58:59.371Z,70.82
2022-11-27T17:01:31.995Z,70.96
2022-11-27T17:03:59.726Z,70.93
2022-11-27T17:06:29.304Z,71.12
2022-11-27T17:08:57.688Z,71.25
2022-11-27T17:11:27.261Z,71.30
2022-11-27T17:13:57.725Z,71.12
2022-11-27T17:16:24.944Z,71.16
2022-11-27T17:18:51.608Z,71.67
2022-11-27T17:21:27.553Z,71.45
2022-11-27T17:23:55.823Z,71.45
2022-11-27T17:26:24.047Z,71.61
2022-11-27T17:28:51.384Z,71.54
2022-11-27T17:31:20.400Z,71.42
2022-11-27T17:33:47.753Z,71.54
2022-11-27T17:36:15.632Z,71.75
2022-11-27T17:38:42.383Z,72.12
2022-11-27T17:41:11.622Z,71.74
2022-11-27T17:43:39.609Z,71.88
2022-11-27T17:46:33.283Z,71.71
2022-11-27T17:49:01.820Z,71.79
2022-11-27T17:51:31.542Z,71.99
2022-11-27T17:54:01.137Z,72.06
2022-11-27T17:56:28.977Z,72.12
2022-11-27T17:58:55.997Z,72.05
2022-11-27T18:01:24.972Z,71.79
2022-11-27T18:03:54.622Z,72.25
2022-11-27T18:06:23.269Z,72.18
2022-11-27T18:08:50.563Z,72.07
2022-11-27T18:11:20.911Z,72.03
2022-11-27T18:13:48.570Z,71.95
2022-11-27T18:16:15.636Z,72.26
2022-11-27T18:18:42.352Z,72.18
2022-11-27T18:21:17.868Z,72.09
2022-11-27T18:24:20.560Z,72.17
2022-11-27T18:29:22.806Z,72.31
2022-11-27T18:31:51.286Z,72.20
2022-11-27T18:34:18.030Z,72.32
2022-11-27T18:36:45.890Z,72.49
2022-11-27T18:39:12.994Z,72.63
2022-11-27T18:41:40.854Z,72.39
2022-11-27T18:44:07.585Z,72.71
2022-11-27T18:46:34.720Z,72.53
2022-11-27T18:49:01.379Z,72.64
2022-11-27T18:51:28.053Z,72.53
2022-11-27T18:53:56.057Z,72.18
2022-11-27T18:56:25.498Z,72.51
2022-11-27T18:58:53.851Z,72.25
2022-11-27T19:01:38.140Z,72.53
2022-11-27T19:04:06.735Z,72.37
2022-11-27T19:06:36.200Z,72.36
2022-11-27T19:09:03.044Z,72.57
2022-11-27T19:11:30.892Z,72.29
2022-11-27T19:13:58.645Z,72.67
2022-11-27T19:16:31.343Z,72.76
2022-11-27T19:19:00.586Z,72.63
2022-11-27T19:21:29.634Z,72.81
2022-11-27T19:23:58.600Z,72.85
2022-11-27T19:26:28.640Z,72.76
2022-11-27T19:28:57.962Z,72.87
2022-11-27T19:31:25.881Z,72.70
2022-11-27T19:33:55.916Z,72.60
2022-11-27T19:36:23.175Z,72.85
2022-11-27T19:38:55.079Z,72.89
2022-11-27T19:41:22.446Z,73.12
2022-11-27T19:43:49.430Z,73.23
2022-11-27T19:46:25.744Z,73.02
2022-11-27T19:48:57.348Z,73.09
2022-11-27T19:51:25.130Z,72.88
2022-11-27T19:53:52.461Z,73.19
2022-11-27T19:56:19.582Z,73.42
2022-11-27T19:58:46.271Z,73.30
2022-11-27T20:01:18.579Z,73.29
2022-11-27T20:03:46.256Z,73.27
2022-11-27T20:06:18.658Z,73.34
2022-11-27T20:08:46.770Z,73.48
2022-11-27T20:11:18.768Z,73.14
2022-11-27T20:13:45.885Z,73.03
2022-11-27T20:16:15.298Z,73.11
2022-11-27T20:18:41.975Z,73.21
2022-11-27T20:21:20.769Z,73.28
2022-11-27T20:23:49.326Z,73.27
2022-11-27T20:26:19.125Z,73.33
2022-11-27T20:28:46.232Z,73.36
2022-11-27T20:31:17.036Z,73.16
2022-11-27T20:33:43.769Z,73.45
2022-11-27T20:36:12.776Z,73.35
2022-11-27T20:38:39.891Z,73.39
2022-11-27T20:41:09.195Z,73.54
2022-11-27T20:43:36.827Z,73.69
2022-11-27T20:46:04.119Z,73.64
2022-11-27T20:48:31.621Z,73.61
2022-11-27T20:51:08.865Z,73.55
2022-11-27T20:53:35.795Z,73.47
2022-11-27T20:56:06.780Z,73.44
2022-11-27T20:58:37.895Z,73.49
2022-11-27T21:01:26.373Z,73.61
2022-11-27T21:03:54.688Z,73.63
2022-11-27T21:06:23.622Z,73.63
2022-11-27T21:08:50.463Z,73.46
2022-11-27T21:11:18.770Z,73.81
2022-11-27T21:13:46.888Z,73.60
2022-11-27T21:16:14.478Z,73.86
2022-11-27T21:18:41.409Z,73.83
2022-11-27T21:21:13.595Z,74.02
2022-11-27T21:23:41.775Z,73.81
2022-11-27T21:26:09.497Z,73.99
2022-11-27T21:28:36.842Z,73.76
2022-11-27T21:31:08.381Z,73.78
2022-11-27T21:33:36.017Z,73.60
2022-11-27T21:36:03.275Z,73.93
2022-11-27T21:38:29.991Z,73.77
2022-11-27T21:40:56.728Z,73.94
2022-11-27T21:43:23.554Z,73.58
2022-11-27T21:45:50.462Z,73.53
2022-11-27T21:48:17.170Z,73.79
2022-11-27T21:50:43.929Z,73.64
2022-11-27T21:53:10.565Z,73.99
2022-11-27T21:55:44.315Z,73.97
2022-11-27T21:58:11.064Z,73.95
2022-11-27T22:00:38.082Z,73.83
2022-11-27T22:03:05.343Z,73.63
2022-11-27T22:05:32.427Z,74.01
2022-11-27T22:07:59.142Z,73.79
2022-11-27T22:10:25.951Z,73.85
2022-11-27T22:12:53.026Z,74.06
2022-11-27T22:15:19.972Z,73.79
2022-11-27T22:17:46.714Z,74.13
2022-11-27T22:20:13.720Z,74.04
2022-11-27T22:22:40.341Z,73.89
2022-11-27T22:25:07.285Z,74.03
2022-11-27T22:27:34.203Z,73.76
2022-11-27T22:30:00.805Z,73.77
2022-11-27T22:32:27.566Z,73.73
2022-11-27T22:34:54.262Z,73.94
2022-11-27T22:37:20.824Z,73.89
2022-11-27T22:39:47.536Z,73.96
2022-11-27T22:42:14.309Z,73.92
2022-11-27T22:44:41.107Z,74.07
2022-11-27T22:47:07.997Z,74.18
2022-11-27T22:49:34.729Z,74.04
2022-11-27T22:52:01.434Z,74.21
2022-11-27T22:54:28.096Z,74.01
2022-11-27T22:56:54.954Z,74.09
2022-11-27T22:59:36.832Z,74.28
2022-11-27T23:02:03.819Z,73.79
2022-11-27T23:04:30.707Z,74.19
2022-11-27T23:06:57.285Z,74.22
2022-11-27T23:09:24.211Z,74.35
2022-11-27T23:11:50.910Z,74.05
2022-11-27T23:14:17.945Z,74.13
2022-11-27T23:16:45.157Z,74.20
2022-11-27T23:19:12.484Z,74.18
2022-11-27T23:21:39.743Z,74.27
2022-11-27T23:24:08.476Z,74.26
2022-11-27T23:26:36.752Z,74.20
2022-11-27T23:29:04.562Z,74.13
2022-11-27T23:31:35.386Z,74.35
2022-11-27T23:34:07.674Z,74.24
2022-11-27T23:36:35.389Z,74.17
2022-11-27T23:39:05.179Z,74.33
2022-11-27T23:41:32.331Z,74.21
2022-11-27T23:43:59.585Z,74.09
2022-11-27T23:46:29.393Z,74.32
2022-11-27T23:48:58.304Z,74.37
2022-11-27T23:51:28.319Z,74.44
2022-11-27T23:53:55.835Z,74.25
2022-11-27T23:56:28.334Z,74.21
2022-11-27T23:58:56.206Z,74.09
